createdAt,value
2022-08-30T00:00:17.403Z,81.51
2022-08-30T00:01:17.376Z,81.51
2022-08-30T00:02:17.376Z,81.45
2022-08-30T00:03:18.015Z,80.44
2022-08-30T00:04:17.253Z,80.84
2022-08-30T00:05:17.371Z,80.94
2022-08-30T00:06:17.279Z,80.94
2022-08-30T00:07:17.259Z,81.15
2022-08-30T00:08:17.530Z,81.24
2022-08-30T00:09:17.226Z,81.55
2022-08-30T00:10:17.575Z,80.84
2022-08-30T00:11:17.395Z,81.15
2022-08-30T00:12:17.346Z,81.35
2022-08-30T00:13:17.682Z,81.35
2022-08-30T00:14:17.319Z,81.85
2022-08-30T00:15:17.218Z,81.95
2022-08-30T00:16:17.211Z,81.85
2022-08-30T00:17:17.102Z,81.75
2022-08-30T00:18:17.210Z,81.55
2022-08-30T00:19:17.518Z,81.79
2022-08-30T00:20:17.235Z,82.09
2022-08-30T00:21:17.193Z,81.89
2022-08-30T00:22:17.276Z,82.59
2022-08-30T00:23:17.282Z,82.29
2022-08-30T00:24:17.125Z,81.99
2022-08-30T00:25:17.052Z,82.39
2022-08-30T00:26:17.287Z,82.39
2022-08-30T00:27:17.224Z,82.09
2022-08-30T00:28:17.120Z,82.79
2022-08-30T00:29:17.400Z,82.50
2022-08-30T00:30:17.090Z,81.99
2022-08-30T00:31:17.008Z,82.50
2022-08-30T00:32:17.008Z,82.39
2022-08-30T00:33:17.229Z,82.59
2022-08-30T00:34:17.138Z,82.19
2022-08-30T00:35:17.598Z,82.70
2022-08-30T00:36:16.980Z,82.50
2022-08-30T00:37:17.070Z,82.19
2022-08-30T00:38:16.918Z,82.29
2022-08-30T00:39:16.902Z,81.79
2022-08-30T00:40:17.031Z,81.79
2022-08-30T00:41:17.364Z,81.99
2022-08-30T00:42:16.906Z,81.48
2022-08-30T00:43:17.187Z,81.48
2022-08-30T00:44:17.251Z,81.48
2022-08-30T00:45:16.814Z,82.09
2022-08-30T00:46:17.088Z,81.59
2022-08-30T00:47:17.007Z,81.68
2022-08-30T00:48:16.805Z,81.38
2022-08-30T00:49:16.770Z,81.59
2022-08-30T00:50:16.876Z,81.79
2022-08-30T00:51:16.764Z,81.59
2022-08-30T00:52:16.940Z,82.29
2022-08-30T00:53:16.934Z,81.89
2022-08-30T00:54:16.805Z,81.89
2022-08-30T00:55:17.082Z,82.39
2022-08-30T00:56:16.987Z,82.29
2022-08-30T00:57:16.669Z,83.00
2022-08-30T00:58:16.698Z,82.50
2022-08-30T00:59:16.870Z,82.59
2022-08-30T01:00:16.667Z,83.00
2022-08-30T01:01:16.968Z,82.70
2022-08-30T01:02:16.820Z,82.50
2022-08-30T01:03:16.838Z,82.79
2022-08-30T01:04:17.067Z,83.00
2022-08-30T01:05:16.615Z,82.90
2022-08-30T01:06:16.867Z,82.90
2022-08-30T01:07:16.612Z,83.00
2022-08-30T01:08:16.561Z,82.79
2022-08-30T01:09:16.581Z,82.39
2022-08-30T01:10:16.559Z,82.93
2022-08-30T01:11:16.729Z,82.93
2022-08-30T01:12:17.383Z,82.84
2022-08-30T01:13:16.771Z,83.34
2022-08-30T01:14:16.568Z,82.93
2022-08-30T01:15:16.516Z,82.93
2022-08-30T01:16:16.679Z,82.84
2022-08-30T01:17:16.708Z,83.64
2022-08-30T01:18:16.547Z,82.73
2022-08-30T01:19:16.455Z,83.34
2022-08-30T01:20:16.641Z,83.84
2022-08-30T01:21:16.488Z,83.54
2022-08-30T01:22:16.661Z,83.54
2022-08-30T01:23:16.708Z,83.24
2022-08-30T01:24:16.514Z,83.24
2022-08-30T01:25:16.425Z,83.24
2022-08-30T01:26:16.423Z,83.74
2022-08-30T01:27:16.588Z,83.44
2022-08-30T01:28:16.791Z,83.58
2022-08-30T01:29:16.587Z,83.78
2022-08-30T01:30:16.583Z,83.98
2022-08-30T01:31:16.662Z,83.78
2022-08-30T01:32:20.750Z,83.78
2022-08-30T01:33:16.546Z,83.68
2022-08-30T01:34:16.355Z,83.84
2022-08-30T01:35:16.517Z,84.25
2022-08-30T01:36:16.290Z,84.15
2022-08-30T01:37:16.277Z,83.54
2022-08-30T01:38:16.291Z,84.15
2022-08-30T01:39:16.259Z,84.05
2022-08-30T01:40:16.407Z,83.84
2022-08-30T01:41:16.247Z,84.05
2022-08-30T01:42:16.307Z,83.64
2022-08-30T01:43:16.464Z,84.15
2022-08-30T01:44:16.233Z,84.55
2022-08-30T01:45:16.196Z,84.05
2022-08-30T01:46:16.298Z,83.44
2022-08-30T01:47:16.201Z,83.74
2022-08-30T01:48:16.394Z,83.64
2022-08-30T01:49:16.572Z,83.84
2022-08-30T01:50:16.162Z,83.64
2022-08-30T01:51:16.152Z,83.54
2022-08-30T01:52:16.282Z,84.05
2022-08-30T01:53:16.326Z,83.95
2022-08-30T01:54:16.331Z,84.55
2022-08-30T01:55:16.315Z,84.05
2022-08-30T01:56:16.159Z,84.25
2022-08-30T01:57:16.110Z,84.25
2022-08-30T01:58:16.606Z,84.35
2022-08-30T01:59:16.088Z,83.84
2022-08-30T02:00:16.236Z,84.15
2022-08-30T02:01:16.108Z,84.15
2022-08-30T02:02:16.232Z,83.95
2022-08-30T02:03:16.345Z,83.95
2022-08-30T02:04:16.253Z,83.95
2022-08-30T02:05:16.005Z,83.74
2022-08-30T02:06:16.003Z,83.64
2022-08-30T02:07:17.052Z,83.95
2022-08-30T02:08:16.006Z,84.25
2022-08-30T02:09:15.973Z,83.64
2022-08-30T02:10:16.091Z,83.95
2022-08-30T02:11:16.073Z,84.15
2022-08-30T02:12:16.237Z,83.54
2022-08-30T02:13:16.030Z,84.05
2022-08-30T02:14:15.910Z,83.84
2022-08-30T02:15:15.895Z,83.84
2022-08-30T02:16:16.148Z,83.44
2022-08-30T02:17:15.885Z,83.74
2022-08-30T02:18:15.916Z,83.64
2022-08-30T02:19:15.880Z,84.35
2022-08-30T02:20:15.909Z,83.74
2022-08-30T02:21:15.828Z,83.64
2022-08-30T02:22:15.856Z,83.74
2022-08-30T02:23:16.212Z,84.05
2022-08-30T02:24:16.030Z,83.54
2022-08-30T02:25:21.120Z,84.19
2022-08-30T02:26:15.827Z,83.84
2022-08-30T02:27:15.910Z,83.88
2022-08-30T02:28:15.916Z,84.29
2022-08-30T02:29:15.776Z,84.39
2022-08-30T02:30:16.110Z,84.59
2022-08-30T02:31:15.890Z,84.69
2022-08-30T02:32:15.756Z,84.59
2022-08-30T02:33:15.925Z,84.09
2022-08-30T02:34:15.739Z,83.98
2022-08-30T02:35:15.872Z,83.98
2022-08-30T02:36:15.689Z,84.49
2022-08-30T02:37:15.822Z,84.39
2022-08-30T02:38:15.683Z,84.29
2022-08-30T02:39:15.980Z,84.59
2022-08-30T02:40:15.746Z,85.10
2022-08-30T02:41:15.794Z,84.69
2022-08-30T02:42:15.880Z,85.10
2022-08-30T02:43:15.813Z,84.69
2022-08-30T02:44:15.605Z,84.79
2022-08-30T02:45:15.633Z,84.89
2022-08-30T02:46:15.690Z,85.30
2022-08-30T02:47:15.578Z,85.19
2022-08-30T02:48:15.556Z,84.69
2022-08-30T02:50:15.555Z,84.79
2022-08-30T02:51:15.660Z,84.89
2022-08-30T02:52:15.527Z,84.43
2022-08-30T02:53:16.202Z,84.83
2022-08-30T02:54:15.567Z,84.53
2022-08-30T02:55:15.765Z,84.93
2022-08-30T02:56:15.569Z,84.83
2022-08-30T02:57:15.665Z,84.83
2022-08-30T02:58:15.507Z,84.83
2022-08-30T02:59:15.461Z,85.34
2022-08-30T03:00:15.469Z,84.93
2022-08-30T03:01:15.496Z,84.83
2022-08-30T03:02:15.649Z,85.03
2022-08-30T03:03:15.713Z,85.14
2022-08-30T03:04:15.789Z,85.24
2022-08-30T03:05:15.413Z,85.14
2022-08-30T03:06:15.649Z,85.03
2022-08-30T03:07:15.375Z,85.03
2022-08-30T03:08:15.416Z,85.54
2022-08-30T03:09:15.427Z,85.34
2022-08-30T03:10:15.413Z,85.34
2022-08-30T03:11:15.335Z,85.44
2022-08-30T03:12:15.378Z,85.38
2022-08-30T03:13:15.533Z,85.64
2022-08-30T03:14:15.338Z,85.38
2022-08-30T03:15:15.248Z,85.74
2022-08-30T03:16:15.505Z,86.15
2022-08-30T03:17:15.927Z,85.78
2022-08-30T03:18:15.470Z,85.78
2022-08-30T03:19:15.240Z,85.68
2022-08-30T03:20:15.255Z,86.29
2022-08-30T03:21:15.383Z,85.58
2022-08-30T03:22:15.391Z,85.68
2022-08-30T03:23:21.545Z,86.79
2022-08-30T03:24:15.428Z,86.08
2022-08-30T03:25:15.181Z,86.29
2022-08-30T03:26:15.330Z,86.08
2022-08-30T03:27:15.314Z,86.19
2022-08-30T03:28:15.161Z,86.29
2022-08-30T03:29:15.159Z,85.99
2022-08-30T03:30:15.184Z,85.88
2022-08-30T03:31:15.337Z,86.29
2022-08-30T03:32:15.218Z,85.99
2022-08-30T03:33:15.168Z,86.08
2022-08-30T03:34:15.080Z,85.78
2022-08-30T03:35:15.100Z,86.59
2022-08-30T03:36:15.407Z,86.08
2022-08-30T03:37:15.236Z,85.88
2022-08-30T03:38:15.358Z,86.08
2022-08-30T03:39:15.024Z,86.19
2022-08-30T03:40:15.263Z,86.08
2022-08-30T03:41:15.012Z,86.49
2022-08-30T03:42:15.049Z,86.39
2022-08-30T03:43:15.288Z,86.39
2022-08-30T03:44:14.978Z,86.90
2022-08-30T03:45:14.990Z,86.29
2022-08-30T03:46:15.047Z,86.69
2022-08-30T03:47:15.037Z,86.69
2022-08-30T03:48:15.030Z,86.69
2022-08-30T03:49:14.924Z,86.49
2022-08-30T03:50:15.073Z,86.79
2022-08-30T03:51:14.901Z,86.90
2022-08-30T03:52:14.905Z,86.59
2022-08-30T03:53:15.052Z,86.90
2022-08-30T03:54:14.890Z,86.69
2022-08-30T03:55:14.991Z,86.69
2022-08-30T03:56:15.006Z,86.69
2022-08-30T03:57:19.697Z,86.49
2022-08-30T03:58:15.025Z,86.49
2022-08-30T03:59:14.852Z,86.59
2022-08-30T04:00:14.861Z,86.08
2022-08-30T04:01:14.923Z,86.59
2022-08-30T04:02:14.890Z,86.79
2022-08-30T04:03:14.837Z,86.69
2022-08-30T04:04:20.044Z,86.79
2022-08-30T04:05:14.998Z,86.59
2022-08-30T04:06:14.803Z,86.59
2022-08-30T04:07:14.874Z,86.49
2022-08-30T04:08:15.088Z,86.49
2022-08-30T04:09:14.727Z,86.33
2022-08-30T04:10:14.724Z,86.43
2022-08-30T04:11:14.744Z,87.04
2022-08-30T04:12:18.335Z,86.73
2022-08-30T04:13:14.818Z,86.53
2022-08-30T04:14:14.742Z,86.73
2022-08-30T04:15:14.685Z,87.24
2022-08-30T04:16:14.977Z,87.04
2022-08-30T04:17:14.664Z,87.13
2022-08-30T04:18:14.643Z,87.04
2022-08-30T04:19:14.731Z,87.24
2022-08-30T04:20:14.611Z,87.44
2022-08-30T04:21:14.701Z,87.95
2022-08-30T04:22:14.581Z,87.95
2022-08-30T04:23:14.713Z,87.84
2022-08-30T04:24:15.032Z,87.79
2022-08-30T04:25:15.839Z,87.79
2022-08-30T04:26:14.579Z,87.68
2022-08-30T04:27:14.544Z,87.88
2022-08-30T04:28:14.552Z,87.58
2022-08-30T04:29:14.520Z,88.39
2022-08-30T04:30:14.811Z,88.29
2022-08-30T04:31:15.251Z,88.09
2022-08-30T04:32:14.487Z,87.79
2022-08-30T04:33:14.503Z,88.39
2022-08-30T04:34:14.501Z,88.09
2022-08-30T04:35:14.453Z,88.09
2022-08-30T04:36:14.486Z,88.09
2022-08-30T04:37:14.514Z,88.09
2022-08-30T04:38:14.715Z,88.09
2022-08-30T04:39:14.437Z,88.39
2022-08-30T04:40:14.583Z,88.74
2022-08-30T04:41:14.409Z,88.53
2022-08-30T04:42:14.480Z,88.43
2022-08-30T04:43:14.524Z,88.43
2022-08-30T04:44:14.508Z,88.94
2022-08-30T04:45:14.380Z,88.74
2022-08-30T04:46:14.471Z,88.74
2022-08-30T04:47:14.421Z,88.84
2022-08-30T04:48:14.487Z,89.04
2022-08-30T04:49:14.385Z,89.24
2022-08-30T04:50:14.458Z,89.04
2022-08-30T04:51:14.345Z,88.84
2022-08-30T04:52:14.391Z,89.14
2022-08-30T04:53:14.454Z,89.24
2022-08-30T04:54:14.316Z,89.24
2022-08-30T04:55:19.370Z,89.34
2022-08-30T04:56:14.281Z,88.84
2022-08-30T04:57:14.228Z,89.14
2022-08-30T04:58:14.260Z,89.34
2022-08-30T04:59:14.513Z,89.34
2022-08-30T05:00:14.247Z,88.84
2022-08-30T05:01:14.500Z,89.00
2022-08-30T05:02:14.991Z,88.79
2022-08-30T05:03:14.371Z,89.00
2022-08-30T05:04:14.201Z,88.84
2022-08-30T05:05:14.401Z,88.79
2022-08-30T05:06:14.709Z,89.10
2022-08-30T05:07:14.323Z,89.00
2022-08-30T05:08:14.136Z,89.10
2022-08-30T05:09:14.173Z,89.00
2022-08-30T05:10:14.144Z,89.10
2022-08-30T05:11:14.404Z,89.00
2022-08-30T05:12:14.232Z,88.59
2022-08-30T05:13:14.075Z,89.10
2022-08-30T05:14:14.162Z,89.20
2022-08-30T05:15:14.049Z,88.90
2022-08-30T05:16:14.317Z,89.00
2022-08-30T05:17:14.144Z,89.40
2022-08-30T05:18:14.430Z,89.10
2022-08-30T05:19:14.029Z,89.10
2022-08-30T05:20:13.993Z,89.20
2022-08-30T05:21:14.516Z,89.54
2022-08-30T05:22:14.086Z,89.30
2022-08-30T05:23:14.005Z,89.50
2022-08-30T05:24:14.030Z,89.70
2022-08-30T05:25:14.668Z,89.40
2022-08-30T05:26:13.981Z,89.91
2022-08-30T05:27:14.030Z,90.01
2022-08-30T05:28:14.131Z,89.70
2022-08-30T05:29:13.903Z,89.30
2022-08-30T05:30:13.938Z,89.00
2022-08-30T05:31:14.418Z,89.20
2022-08-30T05:32:14.275Z,89.10
2022-08-30T05:33:13.869Z,88.90
2022-08-30T05:34:14.104Z,89.00
2022-08-30T05:35:14.137Z,89.30
2022-08-30T05:36:14.084Z,88.70
2022-08-30T05:37:13.858Z,88.79
2022-08-30T05:38:14.129Z,89.10
2022-08-30T05:39:13.813Z,89.00
2022-08-30T05:40:14.341Z,88.70
2022-08-30T05:41:13.840Z,89.00
2022-08-30T05:42:13.790Z,88.49
2022-08-30T05:43:13.995Z,88.39
2022-08-30T05:44:13.840Z,88.49
2022-08-30T05:45:13.883Z,88.55
2022-08-30T05:46:13.969Z,88.55
2022-08-30T05:47:13.713Z,88.85
2022-08-30T05:48:13.834Z,88.65
2022-08-30T05:49:13.743Z,88.55
2022-08-30T05:50:13.947Z,88.65
2022-08-30T05:51:13.902Z,88.75
2022-08-30T05:52:13.721Z,88.55
2022-08-30T05:53:13.746Z,88.45
2022-08-30T05:54:13.942Z,88.25
2022-08-30T05:55:13.656Z,88.04
2022-08-30T05:56:13.618Z,88.04
2022-08-30T05:57:13.864Z,88.25
2022-08-30T05:58:13.822Z,87.95
2022-08-30T05:59:13.750Z,88.04
2022-08-30T06:00:13.613Z,88.15
2022-08-30T06:01:13.798Z,88.25
2022-08-30T06:02:13.910Z,88.25
2022-08-30T06:03:13.594Z,88.35
2022-08-30T06:04:13.705Z,88.15
2022-08-30T06:05:14.273Z,88.25
2022-08-30T06:06:14.205Z,88.25
2022-08-30T06:07:15.812Z,88.35
2022-08-30T06:08:13.704Z,88.15
2022-08-30T06:09:13.642Z,88.45
2022-08-30T06:10:13.717Z,88.55
2022-08-30T06:11:13.658Z,88.55
2022-08-30T06:12:13.599Z,88.35
2022-08-30T06:13:13.883Z,88.45
2022-08-30T06:14:13.456Z,88.01
2022-08-30T06:15:13.458Z,87.81
2022-08-30T06:16:13.474Z,87.70
2022-08-30T06:17:13.464Z,87.19
2022-08-30T06:18:13.638Z,87.40
2022-08-30T06:19:13.379Z,87.60
2022-08-30T06:20:13.370Z,87.46
2022-08-30T06:21:15.280Z,87.46
2022-08-30T06:22:13.637Z,87.36
2022-08-30T06:23:13.545Z,86.85
2022-08-30T06:24:13.527Z,86.45
2022-08-30T06:25:13.454Z,86.25
2022-08-30T06:26:13.330Z,86.10
2022-08-30T06:27:13.452Z,85.80
2022-08-30T06:28:13.416Z,85.80
2022-08-30T06:29:13.471Z,85.19
2022-08-30T06:30:13.301Z,86.10
2022-08-30T06:31:13.347Z,86.21
2022-08-30T06:32:13.257Z,85.90
2022-08-30T06:33:13.257Z,85.50
2022-08-30T06:34:13.223Z,85.80
2022-08-30T06:35:13.472Z,85.80
2022-08-30T06:36:13.325Z,85.90
2022-08-30T06:37:29.549Z,85.70
2022-08-30T06:38:13.252Z,85.90
2022-08-30T06:39:13.522Z,86.21
2022-08-30T06:40:13.449Z,85.90
2022-08-30T06:41:13.159Z,86.10
2022-08-30T06:42:13.190Z,86.21
2022-08-30T06:43:13.551Z,86.21
2022-08-30T06:44:13.158Z,86.10
2022-08-30T06:45:13.151Z,86.21
2022-08-30T06:46:13.143Z,86.00
2022-08-30T06:47:13.200Z,86.51
2022-08-30T06:48:13.309Z,86.30
2022-08-30T06:49:13.187Z,86.10
2022-08-30T06:50:13.221Z,86.21
2022-08-30T06:51:13.069Z,86.51
2022-08-30T06:52:13.236Z,86.36
2022-08-30T06:53:13.043Z,85.86
2022-08-30T06:54:13.412Z,86.07
2022-08-30T06:55:13.071Z,85.36
2022-08-30T06:56:16.418Z,85.25
2022-08-30T06:57:13.217Z,84.65
2022-08-30T06:58:13.166Z,84.61
2022-08-30T06:59:12.978Z,84.41
2022-08-30T07:00:13.155Z,84.41
2022-08-30T07:01:13.119Z,84.71
2022-08-30T07:02:13.114Z,84.71
2022-08-30T07:03:13.146Z,84.31
2022-08-30T07:04:12.923Z,84.77
2022-08-30T07:05:18.025Z,84.67
2022-08-30T07:06:12.998Z,83.56
2022-08-30T07:07:12.918Z,83.56
2022-08-30T07:08:13.219Z,83.87
2022-08-30T07:09:12.868Z,83.66
2022-08-30T07:10:12.951Z,83.36
2022-08-30T07:11:12.866Z,83.22
2022-08-30T07:12:13.174Z,83.32
2022-08-30T07:13:13.106Z,83.32
2022-08-30T07:14:12.889Z,83.62
2022-08-30T07:15:12.966Z,83.02
2022-08-30T07:16:12.924Z,82.42
2022-08-30T07:17:12.987Z,82.01
2022-08-30T07:18:13.316Z,82.58
2022-08-30T07:19:14.673Z,82.88
2022-08-30T07:20:12.833Z,82.58
2022-08-30T07:21:12.910Z,81.57
2022-08-30T07:22:12.741Z,82.28
2022-08-30T07:23:12.965Z,82.28
2022-08-30T07:24:12.798Z,81.93
2022-08-30T07:25:13.077Z,81.73
2022-08-30T07:26:13.076Z,81.73
2022-08-30T07:27:12.705Z,81.43
2022-08-30T07:28:12.693Z,81.33
2022-08-30T07:29:12.740Z,81.09
2022-08-30T07:30:12.688Z,80.89
2022-08-30T07:31:12.663Z,81.19
2022-08-30T07:32:12.645Z,80.39
2022-08-30T07:33:12.815Z,80.99
2022-08-30T07:34:12.601Z,80.35
2022-08-30T07:35:12.749Z,80.45
2022-08-30T07:36:12.667Z,80.05
2022-08-30T07:37:16.765Z,79.74
2022-08-30T07:38:12.778Z,79.35
2022-08-30T07:39:12.575Z,79.35
2022-08-30T07:40:12.652Z,79.30
2022-08-30T07:41:12.523Z,80.11
2022-08-30T07:42:13.123Z,80.21
2022-08-30T07:43:12.530Z,78.90
2022-08-30T07:44:12.555Z,78.10
2022-08-30T07:45:12.701Z,78.56
2022-08-30T07:46:12.890Z,78.56
2022-08-30T07:47:12.469Z,77.86
2022-08-30T07:48:12.904Z,78.16
2022-08-30T07:49:12.690Z,78.56
2022-08-30T07:50:12.509Z,78.22
2022-08-30T07:51:12.721Z,77.83
2022-08-30T07:52:12.524Z,78.73
2022-08-30T07:53:12.785Z,77.52
2022-08-30T07:54:12.586Z,77.83
2022-08-30T07:55:12.469Z,77.48
2022-08-30T07:56:12.396Z,77.99
2022-08-30T07:57:12.741Z,75.58
2022-08-30T07:58:12.373Z,76.68
2022-08-30T07:59:12.443Z,76.38
2022-08-30T08:00:12.519Z,76.85
2022-08-30T08:01:12.378Z,76.95
2022-08-30T08:02:12.384Z,76.04
2022-08-30T08:03:12.322Z,76.21
2022-08-30T08:04:12.490Z,75.51
2022-08-30T08:05:16.558Z,74.30
2022-08-30T08:06:12.426Z,74.60
2022-08-30T08:07:12.288Z,74.90
2022-08-30T08:08:12.424Z,73.80
2022-08-30T08:09:12.401Z,74.30
2022-08-30T08:10:12.415Z,75.77
2022-08-30T08:11:12.306Z,73.67
2022-08-30T08:12:12.710Z,74.67
2022-08-30T08:13:12.329Z,73.86
2022-08-30T08:14:12.357Z,74.17
2022-08-30T08:15:12.456Z,73.77
2022-08-30T08:16:12.468Z,74.84
2022-08-30T08:17:12.236Z,74.73
2022-08-30T08:18:12.349Z,74.84
2022-08-30T08:19:12.365Z,74.33
2022-08-30T08:20:12.629Z,73.63
2022-08-30T08:21:12.278Z,73.90
2022-08-30T08:22:27.534Z,73.80
2022-08-30T08:23:12.278Z,72.30
2022-08-30T08:24:12.316Z,71.59
2022-08-30T08:25:12.169Z,72.69
2022-08-30T08:26:12.158Z,72.39
2022-08-30T08:27:12.268Z,72.69
2022-08-30T08:28:12.216Z,72.80
2022-08-30T08:29:12.129Z,72.30
2022-08-30T08:30:12.115Z,72.69
2022-08-30T08:31:12.196Z,72.46
2022-08-30T08:32:12.071Z,71.86
2022-08-30T08:33:12.208Z,72.06
2022-08-30T08:34:12.169Z,72.26
2022-08-30T08:35:12.105Z,73.46
2022-08-30T08:36:12.073Z,72.36
2022-08-30T08:37:12.134Z,71.03
2022-08-30T08:38:12.480Z,71.62
2022-08-30T08:39:12.244Z,70.53
2022-08-30T08:40:12.281Z,72.03
2022-08-30T08:41:12.084Z,72.03
2022-08-30T08:42:12.084Z,71.83
2022-08-30T08:43:12.609Z,71.83
2022-08-30T08:44:12.340Z,70.73
2022-08-30T08:45:12.088Z,70.69
2022-08-30T08:46:12.199Z,70.39
2022-08-30T08:47:11.924Z,70.89
2022-08-30T08:48:12.079Z,70.99
2022-08-30T08:49:11.918Z,71.39
2022-08-30T08:50:12.013Z,69.89
2022-08-30T08:51:12.001Z,70.36
2022-08-30T08:52:11.841Z,70.16
2022-08-30T08:53:24.897Z,70.86
2022-08-30T08:54:12.436Z,68.96
2022-08-30T08:55:11.850Z,67.56
2022-08-30T08:56:11.957Z,69.56
2022-08-30T08:57:15.238Z,70.03
2022-08-30T08:58:11.805Z,69.93
2022-08-30T08:59:11.842Z,69.43
2022-08-30T09:00:11.805Z,68.52
2022-08-30T09:01:11.824Z,68.93
2022-08-30T09:02:11.820Z,67.72
2022-08-30T09:03:12.231Z,68.23
2022-08-30T09:04:11.733Z,67.72
2022-08-30T09:05:11.915Z,68.23
2022-08-30T09:06:11.863Z,68.63
2022-08-30T09:07:11.707Z,68.10
2022-08-30T09:08:11.892Z,67.90
2022-08-30T09:09:12.151Z,68.49
2022-08-30T09:10:11.842Z,65.90
2022-08-30T09:11:11.688Z,68.06
2022-08-30T09:12:11.708Z,67.66
2022-08-30T09:13:13.834Z,67.66
2022-08-30T09:14:11.885Z,66.86
2022-08-30T09:15:11.680Z,67.13
2022-08-30T09:16:14.945Z,66.24
2022-08-30T09:17:11.932Z,65.31
2022-08-30T09:18:19.137Z,66.20
2022-08-30T09:19:11.747Z,65.67
2022-08-30T09:20:12.077Z,64.78
2022-08-30T09:21:11.558Z,65.77
2022-08-30T09:22:11.591Z,65.54
2022-08-30T09:23:11.580Z,64.54
2022-08-30T09:24:11.944Z,64.64
2022-08-30T09:25:11.668Z,62.45
2022-08-30T09:26:11.624Z,65.34
2022-08-30T09:27:11.556Z,62.92
2022-08-30T09:28:11.498Z,63.22
2022-08-30T09:29:11.725Z,62.79
2022-08-30T09:30:15.032Z,62.29
2022-08-30T09:31:12.589Z,63.66
2022-08-30T09:32:25.381Z,62.86
2022-08-30T09:33:11.449Z,62.86
2022-08-30T09:34:11.625Z,61.94
2022-08-30T09:35:11.665Z,61.14
2022-08-30T09:36:11.463Z,60.35
2022-08-30T09:37:11.407Z,61.17
2022-08-30T09:38:13.064Z,60.77
2022-08-30T09:39:11.514Z,62.46
2022-08-30T09:40:11.644Z,61.87
2022-08-30T09:41:11.578Z,63.16
2022-08-30T09:42:11.383Z,63.56
2022-08-30T09:43:12.003Z,63.56
2022-08-30T09:44:11.311Z,61.34
2022-08-30T09:45:11.527Z,61.64
2022-08-30T09:46:16.388Z,60.25
2022-08-30T09:47:11.339Z,61.51
2022-08-30T09:48:11.340Z,60.82
2022-08-30T09:49:11.266Z,61.28
2022-08-30T09:50:11.959Z,60.96
2022-08-30T09:51:11.578Z,61.75
2022-08-30T09:52:11.251Z,58.34
2022-08-30T09:53:11.226Z,59.34
2022-08-30T09:54:17.846Z,57.92
2022-08-30T09:55:11.288Z,57.00
2022-08-30T09:56:11.276Z,56.28
2022-08-30T09:57:11.649Z,58.13
2022-08-30T09:58:11.460Z,55.29
2022-08-30T09:59:11.323Z,57.07
2022-08-30T10:00:13.542Z,56.68
2022-08-30T10:01:11.276Z,56.55
2022-08-30T10:02:11.226Z,55.66
2022-08-30T10:03:11.176Z,56.72
2022-08-30T10:04:11.670Z,56.02
2022-08-30T10:05:11.539Z,53.06
2022-08-30T10:06:11.186Z,53.82
2022-08-30T10:07:11.134Z,56.40
2022-08-30T10:08:12.682Z,54.39
2022-08-30T10:09:11.392Z,54.79
2022-08-30T10:10:11.483Z,56.46
2022-08-30T10:11:11.257Z,55.65
2022-08-30T10:12:11.422Z,51.77
2022-08-30T10:13:11.113Z,52.46
2022-08-30T10:14:11.016Z,54.14
2022-08-30T10:15:11.189Z,52.95
2022-08-30T10:16:11.045Z,53.62
2022-08-30T10:17:11.107Z,51.40
2022-08-30T10:18:10.993Z,50.38
2022-08-30T10:19:11.208Z,51.64
2022-08-30T10:20:11.053Z,52.40
2022-08-30T10:21:14.404Z,49.13
2022-08-30T10:22:11.033Z,48.05
2022-08-30T10:23:11.115Z,50.42
2022-08-30T10:24:10.996Z,48.94
2022-08-30T10:25:10.975Z,49.35
2022-08-30T10:26:10.994Z,48.66
2022-08-30T10:27:11.153Z,47.68
2022-08-30T10:28:11.358Z,47.58
2022-08-30T10:29:11.159Z,51.54
2022-08-30T10:30:11.483Z,51.03
2022-08-30T10:31:10.961Z,50.09
2022-08-30T10:32:11.038Z,48.89
2022-08-30T10:33:10.919Z,45.72
2022-08-30T10:34:10.864Z,45.23
2022-08-30T10:35:10.830Z,48.67
2022-08-30T10:36:10.823Z,45.70
2022-08-30T10:37:10.804Z,47.69
2022-08-30T10:38:11.067Z,47.39
2022-08-30T10:39:11.297Z,46.60
2022-08-30T10:40:10.946Z,47.29
2022-08-30T10:41:10.789Z,46.70
2022-08-30T10:42:10.818Z,46.50
2022-08-30T10:43:10.788Z,46.43
2022-08-30T10:44:10.774Z,46.25
2022-08-30T10:45:10.734Z,46.47
2022-08-30T10:46:10.886Z,46.18
2022-08-30T10:47:10.802Z,49.04
2022-08-30T10:48:12.176Z,47.63
2022-08-30T10:49:10.753Z,45.84
2022-08-30T10:50:10.750Z,46.82
2022-08-30T10:51:10.788Z,47.98
2022-08-30T10:52:10.879Z,44.91
2022-08-30T10:53:10.767Z,44.54
2022-08-30T10:54:10.699Z,45.72
2022-08-30T10:55:10.679Z,46.21
2022-08-30T10:56:10.627Z,44.95
2022-08-30T10:57:10.770Z,46.13
2022-08-30T10:58:10.607Z,47.91
2022-08-30T10:59:11.976Z,46.21
2022-08-30T11:00:10.647Z,46.11
2022-08-30T11:01:12.669Z,46.60
2022-08-30T11:02:10.599Z,46.78
2022-08-30T11:03:10.967Z,45.99
2022-08-30T11:04:14.254Z,46.19
2022-08-30T11:05:10.861Z,46.46
2022-08-30T11:06:10.591Z,44.59
2022-08-30T11:07:10.873Z,44.44
2022-08-30T11:08:14.138Z,45.23
2022-08-30T11:09:10.548Z,44.24
2022-08-30T11:10:10.886Z,44.64
2022-08-30T11:11:12.574Z,45.12
2022-08-30T11:12:10.603Z,45.56
2022-08-30T11:13:10.551Z,46.37
2022-08-30T11:14:10.934Z,47.77
2022-08-30T11:15:10.500Z,48.96
2022-08-30T11:16:10.573Z,48.27
2022-08-30T11:17:10.759Z,48.34
2022-08-30T11:18:10.520Z,47.63
2022-08-30T11:19:10.479Z,45.53
2022-08-30T11:20:10.568Z,46.72
2022-08-30T11:21:14.214Z,46.84
2022-08-30T11:22:10.448Z,46.81
2022-08-30T11:23:10.413Z,47.84
2022-08-30T11:24:11.894Z,51.00
2022-08-30T11:25:10.646Z,49.72
2022-08-30T11:26:20.259Z,50.59
2022-08-30T11:27:10.394Z,48.41
2022-08-30T11:28:10.424Z,48.98
2022-08-30T11:29:10.342Z,48.96
2022-08-30T11:30:11.166Z,47.23
2022-08-30T11:31:10.916Z,47.13
2022-08-30T11:32:10.604Z,46.84
2022-08-30T11:33:10.373Z,47.90
2022-08-30T11:34:10.777Z,46.20
2022-08-30T11:35:11.289Z,46.22
2022-08-30T11:36:10.573Z,47.60
2022-08-30T11:37:10.849Z,46.81
2022-08-30T11:38:10.448Z,47.01
2022-08-30T11:39:10.320Z,46.54
2022-08-30T11:40:15.615Z,47.82
2022-08-30T11:41:10.557Z,47.16
2022-08-30T11:42:10.299Z,49.33
2022-08-30T11:43:10.474Z,48.07
2022-08-30T11:44:10.375Z,46.39
2022-08-30T11:45:10.216Z,48.75
2022-08-30T11:46:13.998Z,46.61
2022-08-30T11:47:10.363Z,48.88
2022-08-30T11:48:10.232Z,47.79
2022-08-30T11:49:10.253Z,50.26
2022-08-30T11:50:11.144Z,48.96
2022-08-30T11:51:11.297Z,47.77
2022-08-30T11:52:27.231Z,47.97
2022-08-30T11:53:10.266Z,45.48
2022-08-30T11:54:10.145Z,47.85
2022-08-30T11:55:10.337Z,46.29
2022-08-30T11:56:10.123Z,47.00
2022-08-30T11:57:10.345Z,47.00
2022-08-30T11:58:11.616Z,48.21
2022-08-30T11:59:10.167Z,46.93
2022-08-30T12:00:10.519Z,48.11
2022-08-30T12:01:25.906Z,48.83
2022-08-30T12:02:10.497Z,49.42
2022-08-30T12:03:10.457Z,48.03
2022-08-30T12:04:15.301Z,49.22
2022-08-30T12:05:10.278Z,50.09
2022-08-30T12:06:10.303Z,48.88
2022-08-30T12:07:10.127Z,48.78
2022-08-30T12:08:10.040Z,48.07
2022-08-30T12:09:10.007Z,45.97
2022-08-30T12:10:10.134Z,47.43
2022-08-30T12:11:10.269Z,46.42
2022-08-30T12:12:10.058Z,45.81
2022-08-30T12:13:10.160Z,44.51
2022-08-30T12:14:12.329Z,43.03
2022-08-30T12:15:09.972Z,44.15
2022-08-30T12:16:10.014Z,45.73
2022-08-30T12:17:10.243Z,47.01
2022-08-30T12:18:15.226Z,45.43
2022-08-30T12:19:09.908Z,46.22
2022-08-30T12:20:09.873Z,44.65
2022-08-30T12:21:09.859Z,45.43
2022-08-30T12:22:09.866Z,45.36
2022-08-30T12:23:10.042Z,44.18
2022-08-30T12:24:09.913Z,44.69
2022-08-30T12:25:09.841Z,44.81
2022-08-30T12:26:10.887Z,45.03
2022-08-30T12:27:09.797Z,45.84
2022-08-30T12:28:09.829Z,45.54
2022-08-30T12:29:09.815Z,47.05
2022-08-30T12:30:10.001Z,47.25
2022-08-30T12:31:09.753Z,48.73
2022-08-30T12:32:09.974Z,47.74
2022-08-30T12:33:09.732Z,48.41
2022-08-30T12:34:09.727Z,46.53
2022-08-30T12:35:09.727Z,46.70
2022-08-30T12:36:09.795Z,45.72
2022-08-30T12:37:09.690Z,45.32
2022-08-30T12:38:09.833Z,47.00
2022-08-30T12:39:09.689Z,47.20
2022-08-30T12:40:09.765Z,45.92
2022-08-30T12:41:09.700Z,47.57
2022-08-30T12:42:09.826Z,46.09
2022-08-30T12:43:10.324Z,46.19
2022-08-30T12:44:09.683Z,46.98
2022-08-30T12:45:09.704Z,46.56
2022-08-30T12:46:09.670Z,47.55
2022-08-30T12:47:09.712Z,45.75
2022-08-30T12:48:09.712Z,45.75
2022-08-30T12:49:09.629Z,46.32
2022-08-30T12:50:12.010Z,44.84
2022-08-30T12:51:09.612Z,44.76
2022-08-30T12:52:09.675Z,45.36
2022-08-30T12:53:13.697Z,44.91